sensor_id;sensor_type;location;lat;lon;timestamp;P1;durP1;ratioP1;P2;durP2;ratioP2
18905;SDS011;9585;51.018;4.282;2023-02-15T00:00:54;30.40;;;19.20;;
18905;SDS011;9585;51.018;4.282;2023-02-15T00:03:32;27.37;;;18.47;;
18905;SDS011;9585;51.018;4.282;2023-02-15T00:05:59;28.53;;;18.83;;
18905;SDS011;9585;51.018;4.282;2023-02-15T00:08:26;29.77;;;19.30;;
18905;SDS011;9585;51.018;4.282;2023-02-15T00:10:53;30.50;;;19.63;;
18905;SDS011;9585;51.018;4.282;2023-02-15T00:13:30;34.80;;;19.87;;
18905;SDS011;9585;51.018;4.282;2023-02-15T00:16:00;33.17;;;20.93;;
18905;SDS011;9585;51.018;4.282;2023-02-15T00:18:28;36.97;;;23.30;;
18905;SDS011;9585;51.018;4.282;2023-02-15T00:20:56;40.37;;;23.97;;
18905;SDS011;9585;51.018;4.282;2023-02-15T00:23:24;36.93;;;23.87;;
18905;SDS011;9585;51.018;4.282;2023-02-15T00:26:02;36.97;;;25.27;;
18905;SDS011;9585;51.018;4.282;2023-02-15T00:28:30;35.83;;;22.87;;
18905;SDS011;9585;51.018;4.282;2023-02-15T00:31:21;35.03;;;21.80;;
18905;SDS011;9585;51.018;4.282;2023-02-15T00:34:05;42.23;;;26.43;;
18905;SDS011;9585;51.018;4.282;2023-02-15T00:36:35;44.13;;;27.50;;
18905;SDS011;9585;51.018;4.282;2023-02-15T00:39:02;40.70;;;25.67;;
18905;SDS011;9585;51.018;4.282;2023-02-15T00:41:30;37.77;;;25.07;;
18905;SDS011;9585;51.018;4.282;2023-02-15T00:43:58;41.20;;;24.37;;
18905;SDS011;9585;51.018;4.282;2023-02-15T00:46:26;39.57;;;24.57;;
18905;SDS011;9585;51.018;4.282;2023-02-15T00:48:53;45.90;;;28.67;;
18905;SDS011;9585;51.018;4.282;2023-02-15T00:51:20;39.40;;;24.23;;
18905;SDS011;9585;51.018;4.282;2023-02-15T00:53:49;38.57;;;24.77;;
18905;SDS011;9585;51.018;4.282;2023-02-15T00:56:16;44.37;;;25.80;;
18905;SDS011;9585;51.018;4.282;2023-02-15T00:58:44;35.73;;;23.83;;
18905;SDS011;9585;51.018;4.282;2023-02-15T01:01:12;35.80;;;22.67;;
18905;SDS011;9585;51.018;4.282;2023-02-15T01:03:40;34.93;;;22.90;;
18905;SDS011;9585;51.018;4.282;2023-02-15T01:06:08;34.93;;;23.10;;
18905;SDS011;9585;51.018;4.282;2023-02-15T01:08:35;32.63;;;21.40;;
18905;SDS011;9585;51.018;4.282;2023-02-15T01:11:05;36.20;;;23.60;;
18905;SDS011;9585;51.018;4.282;2023-02-15T01:13:33;34.13;;;23.33;;
18905;SDS011;9585;51.018;4.282;2023-02-15T01:16:01;37.17;;;23.90;;
18905;SDS011;9585;51.018;4.282;2023-02-15T01:18:29;32.87;;;22.27;;
18905;SDS011;9585;51.018;4.282;2023-02-15T01:20:56;33.20;;;22.03;;
18905;SDS011;9585;51.018;4.282;2023-02-15T01:23:24;33.93;;;22.83;;
18905;SDS011;9585;51.018;4.282;2023-02-15T01:25:51;32.37;;;21.20;;
18905;SDS011;9585;51.018;4.282;2023-02-15T01:28:19;35.50;;;22.27;;
18905;SDS011;9585;51.018;4.282;2023-02-15T01:30:47;30.63;;;21.37;;
18905;SDS011;9585;51.018;4.282;2023-02-15T01:33:14;36.63;;;22.47;;
18905;SDS011;9585;51.018;4.282;2023-02-15T01:35:44;34.23;;;22.33;;
18905;SDS011;9585;51.018;4.282;2023-02-15T01:38:11;34.60;;;22.47;;
18905;SDS011;9585;51.018;4.282;2023-02-15T01:40:39;34.07;;;22.43;;
18905;SDS011;9585;51.018;4.282;2023-02-15T01:43:09;36.10;;;22.47;;
18905;SDS011;9585;51.018;4.282;2023-02-15T01:45:38;37.30;;;22.47;;
18905;SDS011;9585;51.018;4.282;2023-02-15T01:48:13;38.20;;;23.90;;
18905;SDS011;9585;51.018;4.282;2023-02-15T01:50:47;41.60;;;24.57;;
18905;SDS011;9585;51.018;4.282;2023-02-15T01:53:17;39.73;;;23.93;;
18905;SDS011;9585;51.018;4.282;2023-02-15T01:55:50;35.10;;;22.77;;
18905;SDS011;9585;51.018;4.282;2023-02-15T01:58:22;33.47;;;21.43;;
18905;SDS011;9585;51.018;4.282;2023-02-15T02:00:51;33.43;;;22.90;;
18905;SDS011;9585;51.018;4.282;2023-02-15T02:03:21;35.57;;;23.40;;
18905;SDS011;9585;51.018;4.282;2023-02-15T02:05:56;47.00;;;28.17;;
18905;SDS011;9585;51.018;4.282;2023-02-15T02:08:23;53.37;;;29.87;;
18905;SDS011;9585;51.018;4.282;2023-02-15T02:10:51;47.77;;;28.03;;
18905;SDS011;9585;51.018;4.282;2023-02-15T02:13:18;48.07;;;30.07;;
18905;SDS011;9585;51.018;4.282;2023-02-15T02:15:47;44.73;;;27.40;;
18905;SDS011;9585;51.018;4.282;2023-02-15T02:18:25;43.27;;;26.23;;
18905;SDS011;9585;51.018;4.282;2023-02-15T02:21:13;36.27;;;23.50;;
18905;SDS011;9585;51.018;4.282;2023-02-15T02:24:06;40.40;;;24.33;;
18905;SDS011;9585;51.018;4.282;2023-02-15T02:26:56;40.83;;;25.13;;
18905;SDS011;9585;51.018;4.282;2023-02-15T02:29:58;33.00;;;21.00;;
18905;SDS011;9585;51.018;4.282;2023-02-15T02:33:09;32.30;;;21.77;;
18905;SDS011;9585;51.018;4.282;2023-02-15T02:36:02;39.63;;;23.97;;
18905;SDS011;9585;51.018;4.282;2023-02-15T02:38:37;36.83;;;23.87;;
18905;SDS011;9585;51.018;4.282;2023-02-15T02:41:17;33.67;;;21.90;;
18905;SDS011;9585;51.018;4.282;2023-02-15T02:43:51;32.27;;;21.63;;
18905;SDS011;9585;51.018;4.282;2023-02-15T02:46:28;33.67;;;21.50;;
18905;SDS011;9585;51.018;4.282;2023-02-15T02:49:02;34.37;;;22.53;;
18905;SDS011;9585;51.018;4.282;2023-02-15T02:51:29;35.90;;;22.37;;
18905;SDS011;9585;51.018;4.282;2023-02-15T02:53:56;35.60;;;23.37;;
18905;SDS011;9585;51.018;4.282;2023-02-15T02:56:27;34.27;;;22.83;;
18905;SDS011;9585;51.018;4.282;2023-02-15T02:58:59;36.60;;;24.57;;
18905;SDS011;9585;51.018;4.282;2023-02-15T03:01:32;38.73;;;24.67;;
18905;SDS011;9585;51.018;4.282;2023-02-15T03:04:03;38.40;;;23.50;;
18905;SDS011;9585;51.018;4.282;2023-02-15T03:06:36;36.03;;;22.70;;
18905;SDS011;9585;51.018;4.282;2023-02-15T03:09:09;33.67;;;22.50;;
18905;SDS011;9585;51.018;4.282;2023-02-15T03:11:46;41.37;;;25.07;;
18905;SDS011;9585;51.018;4.282;2023-02-15T03:14:14;45.40;;;27.13;;
18905;SDS011;9585;51.018;4.282;2023-02-15T03:16:45;54.87;;;32.60;;
18905;SDS011;9585;51.018;4.282;2023-02-15T03:19:16;50.97;;;30.33;;
18905;SDS011;9585;51.018;4.282;2023-02-15T03:21:48;47.43;;;28.03;;
18905;SDS011;9585;51.018;4.282;2023-02-15T03:24:23;42.87;;;27.37;;
18905;SDS011;9585;51.018;4.282;2023-02-15T03:26:55;40.90;;;25.23;;
18905;SDS011;9585;51.018;4.282;2023-02-15T03:29:24;37.13;;;23.60;;
18905;SDS011;9585;51.018;4.282;2023-02-15T03:31:54;34.30;;;22.90;;
18905;SDS011;9585;51.018;4.282;2023-02-15T03:34:26;33.40;;;22.37;;
18905;SDS011;9585;51.018;4.282;2023-02-15T03:36:56;40.43;;;26.67;;
18905;SDS011;9585;51.018;4.282;2023-02-15T03:39:30;41.17;;;25.20;;
18905;SDS011;9585;51.018;4.282;2023-02-15T03:42:02;36.67;;;23.83;;
18905;SDS011;9585;51.018;4.282;2023-02-15T03:44:36;43.47;;;26.23;;
18905;SDS011;9585;51.018;4.282;2023-02-15T03:47:11;44.47;;;27.87;;
18905;SDS011;9585;51.018;4.282;2023-02-15T03:49:43;41.77;;;26.57;;
18905;SDS011;9585;51.018;4.282;2023-02-15T03:52:13;44.97;;;27.07;;
18905;SDS011;9585;51.018;4.282;2023-02-15T03:54:41;53.03;;;30.27;;
18905;SDS011;9585;51.018;4.282;2023-02-15T03:57:11;55.17;;;32.40;;
18905;SDS011;9585;51.018;4.282;2023-02-15T03:59:58;50.97;;;31.30;;
18905;SDS011;9585;51.018;4.282;2023-02-15T04:02:45;57.10;;;32.37;;
18905;SDS011;9585;51.018;4.282;2023-02-15T04:05:26;59.57;;;34.23;;
18905;SDS011;9585;51.018;4.282;2023-02-15T04:07:54;54.87;;;30.43;;
18905;SDS011;9585;51.018;4.282;2023-02-15T04:10:21;48.57;;;28.43;;
18905;SDS011;9585;51.018;4.282;2023-02-15T04:13:05;39.67;;;26.03;;
18905;SDS011;9585;51.018;4.282;2023-02-15T04:15:33;37.73;;;25.03;;
18905;SDS011;9585;51.018;4.282;2023-02-15T04:18:17;38.23;;;24.33;;
18905;SDS011;9585;51.018;4.282;2023-02-15T04:20:45;35.13;;;22.93;;
18905;SDS011;9585;51.018;4.282;2023-02-15T04:23:30;30.07;;;20.37;;
18905;SDS011;9585;51.018;4.282;2023-02-15T04:26:15;30.87;;;20.03;;
18905;SDS011;9585;51.018;4.282;2023-02-15T04:28:42;32.47;;;21.30;;
18905;SDS011;9585;51.018;4.282;2023-02-15T04:31:09;29.67;;;20.50;;
18905;SDS011;9585;51.018;4.282;2023-02-15T04:33:37;33.87;;;20.53;;
18905;SDS011;9585;51.018;4.282;2023-02-15T04:36:05;31.00;;;20.27;;
18905;SDS011;9585;51.018;4.282;2023-02-15T04:38:33;33.57;;;21.23;;
18905;SDS011;9585;51.018;4.282;2023-02-15T04:41:00;34.37;;;22.50;;
18905;SDS011;9585;51.018;4.282;2023-02-15T04:43:27;40.60;;;23.87;;
18905;SDS011;9585;51.018;4.282;2023-02-15T04:45:55;42.03;;;25.40;;
18905;SDS011;9585;51.018;4.282;2023-02-15T04:48:23;37.40;;;22.30;;
18905;SDS011;9585;51.018;4.282;2023-02-15T04:50:51;37.87;;;23.17;;
18905;SDS011;9585;51.018;4.282;2023-02-15T04:53:19;36.13;;;21.13;;
18905;SDS011;9585;51.018;4.282;2023-02-15T04:55:47;37.47;;;23.47;;
18905;SDS011;9585;51.018;4.282;2023-02-15T04:58:14;36.23;;;23.07;;
18905;SDS011;9585;51.018;4.282;2023-02-15T05:00:41;34.93;;;21.83;;
18905;SDS011;9585;51.018;4.282;2023-02-15T05:03:08;34.33;;;21.87;;
18905;SDS011;9585;51.018;4.282;2023-02-15T05:05:36;29.93;;;20.63;;
18905;SDS011;9585;51.018;4.282;2023-02-15T05:08:03;30.87;;;20.33;;
18905;SDS011;9585;51.018;4.282;2023-02-15T05:10:32;32.60;;;20.97;;
18905;SDS011;9585;51.018;4.282;2023-02-15T05:12:59;31.63;;;20.40;;
18905;SDS011;9585;51.018;4.282;2023-02-15T05:15:26;35.37;;;22.47;;
18905;SDS011;9585;51.018;4.282;2023-02-15T05:17:53;34.57;;;21.83;;
18905;SDS011;9585;51.018;4.282;2023-02-15T05:20:21;35.67;;;22.87;;
18905;SDS011;9585;51.018;4.282;2023-02-15T05:22:48;35.13;;;22.50;;
18905;SDS011;9585;51.018;4.282;2023-02-15T05:25:15;36.20;;;21.30;;
18905;SDS011;9585;51.018;4.282;2023-02-15T05:28:01;34.03;;;21.87;;
18905;SDS011;9585;51.018;4.282;2023-02-15T05:30:46;36.37;;;21.97;;
18905;SDS011;9585;51.018;4.282;2023-02-15T05:33:14;43.97;;;26.00;;
18905;SDS011;9585;51.018;4.282;2023-02-15T05:35:42;45.67;;;27.83;;
18905;SDS011;9585;51.018;4.282;2023-02-15T05:38:09;40.20;;;25.43;;
18905;SDS011;9585;51.018;4.282;2023-02-15T05:40:36;36.63;;;24.20;;
18905;SDS011;9585;51.018;4.282;2023-02-15T05:43:05;34.43;;;22.73;;
18905;SDS011;9585;51.018;4.282;2023-02-15T05:45:32;38.53;;;25.30;;
18905;SDS011;9585;51.018;4.282;2023-02-15T05:48:00;38.03;;;23.97;;
18905;SDS011;9585;51.018;4.282;2023-02-15T05:50:27;36.37;;;24.53;;
18905;SDS011;9585;51.018;4.282;2023-02-15T05:52:54;36.87;;;23.70;;
18905;SDS011;9585;51.018;4.282;2023-02-15T05:55:21;34.87;;;22.50;;
18905;SDS011;9585;51.018;4.282;2023-02-15T05:57:49;35.67;;;22.40;;
18905;SDS011;9585;51.018;4.282;2023-02-15T06:00:18;37.10;;;22.70;;
18905;SDS011;9585;51.018;4.282;2023-02-15T06:02:45;38.93;;;23.33;;
18905;SDS011;9585;51.018;4.282;2023-02-15T06:05:12;32.60;;;21.67;;
18905;SDS011;9585;51.018;4.282;2023-02-15T06:07:42;34.07;;;22.60;;
18905;SDS011;9585;51.018;4.282;2023-02-15T06:10:10;35.53;;;22.73;;
18905;SDS011;9585;51.018;4.282;2023-02-15T06:12:37;34.83;;;22.27;;
18905;SDS011;9585;51.018;4.282;2023-02-15T06:15:05;31.30;;;21.27;;
18905;SDS011;9585;51.018;4.282;2023-02-15T06:17:34;44.10;;;26.23;;
18905;SDS011;9585;51.018;4.282;2023-02-15T06:20:01;50.93;;;29.70;;
18905;SDS011;9585;51.018;4.282;2023-02-15T06:22:29;47.27;;;28.77;;
18905;SDS011;9585;51.018;4.282;2023-02-15T06:24:56;43.87;;;27.17;;
18905;SDS011;9585;51.018;4.282;2023-02-15T06:27:24;52.13;;;30.10;;
18905;SDS011;9585;51.018;4.282;2023-02-15T06:29:51;53.47;;;31.10;;
18905;SDS011;9585;51.018;4.282;2023-02-15T06:32:19;50.07;;;30.60;;
18905;SDS011;9585;51.018;4.282;2023-02-15T06:34:48;47.33;;;28.80;;
18905;SDS011;9585;51.018;4.282;2023-02-15T06:37:15;49.17;;;30.63;;
18905;SDS011;9585;51.018;4.282;2023-02-15T06:39:42;53.03;;;32.33;;
18905;SDS011;9585;51.018;4.282;2023-02-15T06:42:10;54.27;;;32.00;;
18905;SDS011;9585;51.018;4.282;2023-02-15T06:44:37;53.17;;;31.77;;
18905;SDS011;9585;51.018;4.282;2023-02-15T06:47:04;59.77;;;33.13;;
18905;SDS011;9585;51.018;4.282;2023-02-15T06:49:31;52.27;;;31.30;;
18905;SDS011;9585;51.018;4.282;2023-02-15T06:52:00;51.07;;;30.13;;
18905;SDS011;9585;51.018;4.282;2023-02-15T06:54:28;47.50;;;27.73;;
18905;SDS011;9585;51.018;4.282;2023-02-15T06:56:55;48.03;;;28.80;;
18905;SDS011;9585;51.018;4.282;2023-02-15T06:59:22;45.53;;;27.70;;
18905;SDS011;9585;51.018;4.282;2023-02-15T07:01:49;44.50;;;28.77;;
18905;SDS011;9585;51.018;4.282;2023-02-15T07:04:17;51.17;;;30.90;;
18905;SDS011;9585;51.018;4.282;2023-02-15T07:06:44;50.30;;;31.60;;
18905;SDS011;9585;51.018;4.282;2023-02-15T07:09:13;55.13;;;32.63;;
18905;SDS011;9585;51.018;4.282;2023-02-15T07:11:40;48.93;;;29.43;;
18905;SDS011;9585;51.018;4.282;2023-02-15T07:14:25;49.97;;;30.77;;
18905;SDS011;9585;51.018;4.282;2023-02-15T07:16:52;46.67;;;28.70;;
18905;SDS011;9585;51.018;4.282;2023-02-15T07:19:19;42.63;;;27.93;;
18905;SDS011;9585;51.018;4.282;2023-02-15T07:21:46;47.73;;;31.23;;
18905;SDS011;9585;51.018;4.282;2023-02-15T07:24:15;43.30;;;27.43;;
18905;SDS011;9585;51.018;4.282;2023-02-15T07:26:42;49.50;;;29.30;;
18905;SDS011;9585;51.018;4.282;2023-02-15T07:29:10;43.77;;;26.63;;
18905;SDS011;9585;51.018;4.282;2023-02-15T07:31:37;43.90;;;28.20;;
18905;SDS011;9585;51.018;4.282;2023-02-15T07:34:05;44.13;;;28.10;;
18905;SDS011;9585;51.018;4.282;2023-02-15T07:36:32;48.50;;;31.17;;
18905;SDS011;9585;51.018;4.282;2023-02-15T07:38:59;47.37;;;29.77;;
18905;SDS011;9585;51.018;4.282;2023-02-15T07:41:28;53.23;;;32.70;;
18905;SDS011;9585;51.018;4.282;2023-02-15T07:43:55;60.67;;;35.77;;
18905;SDS011;9585;51.018;4.282;2023-02-15T07:46:23;53.20;;;33.83;;
18905;SDS011;9585;51.018;4.282;2023-02-15T07:48:50;50.90;;;31.27;;
18905;SDS011;9585;51.018;4.282;2023-02-15T07:51:17;56.30;;;32.07;;
18905;SDS011;9585;51.018;4.282;2023-02-15T07:53:44;55.97;;;32.60;;
18905;SDS011;9585;51.018;4.282;2023-02-15T07:56:14;58.97;;;33.47;;
18905;SDS011;9585;51.018;4.282;2023-02-15T07:58:43;53.20;;;32.30;;
18905;SDS011;9585;51.018;4.282;2023-02-15T08:01:22;49.67;;;31.67;;
18905;SDS011;9585;51.018;4.282;2023-02-15T08:03:52;53.90;;;32.77;;
18905;SDS011;9585;51.018;4.282;2023-02-15T08:06:20;53.57;;;33.80;;
18905;SDS011;9585;51.018;4.282;2023-02-15T08:08:48;52.83;;;32.80;;
18905;SDS011;9585;51.018;4.282;2023-02-15T08:11:17;49.70;;;31.47;;
18905;SDS011;9585;51.018;4.282;2023-02-15T08:13:56;49.60;;;30.47;;
18905;SDS011;9585;51.018;4.282;2023-02-15T08:16:26;48.57;;;30.53;;
18905;SDS011;9585;51.018;4.282;2023-02-15T08:18:55;47.03;;;27.73;;
18905;SDS011;9585;51.018;4.282;2023-02-15T08:21:24;47.37;;;27.27;;
18905;SDS011;9585;51.018;4.282;2023-02-15T08:23:53;43.83;;;26.30;;
18905;SDS011;9585;51.018;4.282;2023-02-15T08:26:20;40.92;;;25.42;;
18905;SDS011;9585;51.018;4.282;2023-02-15T08:28:48;36.70;;;24.58;;
18905;SDS011;9585;51.018;4.282;2023-02-15T08:31:18;31.05;;;21.30;;
18905;SDS011;9585;51.018;4.282;2023-02-15T08:33:45;28.42;;;20.55;;
18905;SDS011;9585;51.018;4.282;2023-02-15T08:36:15;27.65;;;20.67;;
18905;SDS011;9585;51.018;4.282;2023-02-15T08:38:44;28.45;;;20.42;;
18905;SDS011;9585;51.018;4.282;2023-02-15T08:41:12;30.15;;;21.20;;
18905;SDS011;9585;51.018;4.282;2023-02-15T08:43:41;33.60;;;22.38;;
18905;SDS011;9585;51.018;4.282;2023-02-15T08:46:09;30.52;;;21.77;;
18905;SDS011;9585;51.018;4.282;2023-02-15T08:48:39;36.92;;;23.35;;
18905;SDS011;9585;51.018;4.282;2023-02-15T08:51:07;36.35;;;24.42;;
18905;SDS011;9585;51.018;4.282;2023-02-15T08:53:37;36.75;;;23.98;;
18905;SDS011;9585;51.018;4.282;2023-02-15T08:56:05;30.73;;;22.60;;
18905;SDS011;9585;51.018;4.282;2023-02-15T08:58:33;36.80;;;26.30;;
18905;SDS011;9585;51.018;4.282;2023-02-15T09:01:00;35.95;;;25.25;;
18905;SDS011;9585;51.018;4.282;2023-02-15T09:03:34;40.88;;;26.20;;
18905;SDS011;9585;51.018;4.282;2023-02-15T09:06:02;40.58;;;28.17;;
18905;SDS011;9585;51.018;4.282;2023-02-15T09:08:30;38.88;;;28.38;;
18905;SDS011;9585;51.018;4.282;2023-02-15T09:11:07;43.40;;;29.48;;
18905;SDS011;9585;51.018;4.282;2023-02-15T09:13:35;51.20;;;31.40;;
18905;SDS011;9585;51.018;4.282;2023-02-15T09:16:04;50.17;;;29.10;;
18905;SDS011;9585;51.018;4.282;2023-02-15T09:18:33;55.35;;;30.08;;
18905;SDS011;9585;51.018;4.282;2023-02-15T09:21:08;48.15;;;28.13;;
18905;SDS011;9585;51.018;4.282;2023-02-15T09:23:38;40.28;;;24.85;;
18905;SDS011;9585;51.018;4.282;2023-02-15T09:26:06;35.92;;;22.90;;
18905;SDS011;9585;51.018;4.282;2023-02-15T09:28:35;36.08;;;23.63;;
18905;SDS011;9585;51.018;4.282;2023-02-15T09:31:06;34.95;;;23.13;;
18905;SDS011;9585;51.018;4.282;2023-02-15T09:33:35;33.58;;;22.55;;
18905;SDS011;9585;51.018;4.282;2023-02-15T09:36:04;32.90;;;21.63;;
18905;SDS011;9585;51.018;4.282;2023-02-15T09:38:33;33.22;;;22.17;;
18905;SDS011;9585;51.018;4.282;2023-02-15T09:41:04;33.70;;;21.77;;
18905;SDS011;9585;51.018;4.282;2023-02-15T09:43:46;30.95;;;21.08;;
18905;SDS011;9585;51.018;4.282;2023-02-15T09:46:22;33.22;;;21.73;;
18905;SDS011;9585;51.018;4.282;2023-02-15T09:49:01;31.40;;;22.27;;
18905;SDS011;9585;51.018;4.282;2023-02-15T09:54:44;28.75;;;20.10;;
18905;SDS011;9585;51.018;4.282;2023-02-15T09:57:24;31.45;;;20.77;;
18905;SDS011;9585;51.018;4.282;2023-02-15T10:00:01;30.02;;;20.35;;
18905;SDS011;9585;51.018;4.282;2023-02-15T10:02:44;29.50;;;21.10;;
18905;SDS011;9585;51.018;4.282;2023-02-15T10:05:30;32.63;;;21.67;;
18905;SDS011;9585;51.018;4.282;2023-02-15T10:11:07;29.05;;;19.88;;
18905;SDS011;9585;51.018;4.282;2023-02-15T10:14:01;30.02;;;20.55;;
18905;SDS011;9585;51.018;4.282;2023-02-15T10:16:42;32.50;;;20.42;;
18905;SDS011;9585;51.018;4.282;2023-02-15T10:19:23;31.33;;;21.25;;
18905;SDS011;9585;51.018;4.282;2023-02-15T10:22:03;34.80;;;21.60;;
18905;SDS011;9585;51.018;4.282;2023-02-15T10:24:45;30.13;;;21.48;;
18905;SDS011;9585;51.018;4.282;2023-02-15T10:27:23;31.70;;;20.33;;
18905;SDS011;9585;51.018;4.282;2023-02-15T10:29:54;29.20;;;20.17;;
18905;SDS011;9585;51.018;4.282;2023-02-15T10:32:33;30.33;;;21.05;;
18905;SDS011;9585;51.018;4.282;2023-02-15T10:35:08;32.00;;;21.13;;
18905;SDS011;9585;51.018;4.282;2023-02-15T10:37:49;28.73;;;19.88;;
18905;SDS011;9585;51.018;4.282;2023-02-15T10:40:31;27.90;;;19.20;;
18905;SDS011;9585;51.018;4.282;2023-02-15T10:43:08;28.98;;;19.27;;
18905;SDS011;9585;51.018;4.282;2023-02-15T10:45:51;28.08;;;19.60;;
18905;SDS011;9585;51.018;4.282;2023-02-15T10:48:34;29.55;;;19.80;;
18905;SDS011;9585;51.018;4.282;2023-02-15T10:51:19;28.95;;;19.85;;
18905;SDS011;9585;51.018;4.282;2023-02-15T10:54:00;30.17;;;19.75;;
18905;SDS011;9585;51.018;4.282;2023-02-15T10:56:36;25.55;;;17.83;;
18905;SDS011;9585;51.018;4.282;2023-02-15T10:59:18;26.67;;;19.05;;
18905;SDS011;9585;51.018;4.282;2023-02-15T11:01:57;30.77;;;19.92;;
18905;SDS011;9585;51.018;4.282;2023-02-15T11:04:35;29.42;;;19.55;;
18905;SDS011;9585;51.018;4.282;2023-02-15T11:07:14;32.00;;;21.40;;
18905;SDS011;9585;51.018;4.282;2023-02-15T11:09:47;27.88;;;18.92;;
18905;SDS011;9585;51.018;4.282;2023-02-15T11:12:16;27.58;;;19.58;;
18905;SDS011;9585;51.018;4.282;2023-02-15T11:14:49;31.20;;;20.55;;
18905;SDS011;9585;51.018;4.282;2023-02-15T11:17:22;29.65;;;19.90;;
18905;SDS011;9585;51.018;4.282;2023-02-15T11:19:57;28.63;;;19.80;;
18905;SDS011;9585;51.018;4.282;2023-02-15T11:22:29;29.63;;;20.40;;
18905;SDS011;9585;51.018;4.282;2023-02-15T11:24:59;28.80;;;20.13;;
18905;SDS011;9585;51.018;4.282;2023-02-15T11:27:29;29.92;;;19.98;;
18905;SDS011;9585;51.018;4.282;2023-02-15T11:30:01;29.58;;;20.65;;
18905;SDS011;9585;51.018;4.282;2023-02-15T11:32:31;30.20;;;20.17;;
18905;SDS011;9585;51.018;4.282;2023-02-15T11:35:01;31.98;;;20.65;;
18905;SDS011;9585;51.018;4.282;2023-02-15T11:37:33;27.10;;;20.23;;
18905;SDS011;9585;51.018;4.282;2023-02-15T11:40:20;31.23;;;21.48;;
18905;SDS011;9585;51.018;4.282;2023-02-15T11:42:51;29.10;;;20.30;;
18905;SDS011;9585;51.018;4.282;2023-02-15T11:45:25;29.50;;;20.67;;
18905;SDS011;9585;51.018;4.282;2023-02-15T11:47:54;31.35;;;20.02;;
18905;SDS011;9585;51.018;4.282;2023-02-15T11:50:22;27.77;;;20.02;;
18905;SDS011;9585;51.018;4.282;2023-02-15T11:52:51;29.20;;;20.33;;
18905;SDS011;9585;51.018;4.282;2023-02-15T11:55:23;25.98;;;19.50;;
18905;SDS011;9585;51.018;4.282;2023-02-15T11:57:52;30.75;;;20.27;;
18905;SDS011;9585;51.018;4.282;2023-02-15T12:00:26;30.77;;;20.48;;
18905;SDS011;9585;51.018;4.282;2023-02-15T12:03:02;29.55;;;20.23;;
18905;SDS011;9585;51.018;4.282;2023-02-15T12:05:39;29.35;;;19.48;;
18905;SDS011;9585;51.018;4.282;2023-02-15T12:08:12;25.10;;;19.48;;
18905;SDS011;9585;51.018;4.282;2023-02-15T12:10:45;31.13;;;20.17;;
18905;SDS011;9585;51.018;4.282;2023-02-15T12:13:23;26.15;;;18.45;;
18905;SDS011;9585;51.018;4.282;2023-02-15T12:15:53;29.00;;;20.08;;
18905;SDS011;9585;51.018;4.282;2023-02-15T12:18:35;29.45;;;20.33;;
18905;SDS011;9585;51.018;4.282;2023-02-15T12:21:05;26.67;;;19.15;;
18905;SDS011;9585;51.018;4.282;2023-02-15T12:23:34;28.95;;;21.10;;
18905;SDS011;9585;51.018;4.282;2023-02-15T12:26:10;26.63;;;20.35;;
18905;SDS011;9585;51.018;4.282;2023-02-15T12:28:38;29.17;;;20.50;;
18905;SDS011;9585;51.018;4.282;2023-02-15T12:31:18;30.23;;;21.33;;
18905;SDS011;9585;51.018;4.282;2023-02-15T12:33:48;30.90;;;21.30;;
18905;SDS011;9585;51.018;4.282;2023-02-15T12:36:19;30.75;;;21.85;;
18905;SDS011;9585;51.018;4.282;2023-02-15T12:39:04;29.73;;;20.42;;
18905;SDS011;9585;51.018;4.282;2023-02-15T12:41:46;31.55;;;21.27;;
18905;SDS011;9585;51.018;4.282;2023-02-15T12:44:30;28.60;;;20.35;;
18905;SDS011;9585;51.018;4.282;2023-02-15T12:47:01;30.23;;;21.83;;
18905;SDS011;9585;51.018;4.282;2023-02-15T12:49:29;29.60;;;20.30;;
18905;SDS011;9585;51.018;4.282;2023-02-15T12:51:58;30.65;;;21.75;;
18905;SDS011;9585;51.018;4.282;2023-02-15T12:54:34;30.10;;;21.30;;
18905;SDS011;9585;51.018;4.282;2023-02-15T12:59:57;29.52;;;21.13;;
18905;SDS011;9585;51.018;4.282;2023-02-15T13:02:28;28.85;;;21.25;;
18905;SDS011;9585;51.018;4.282;2023-02-15T13:05:04;29.25;;;21.08;;
18905;SDS011;9585;51.018;4.282;2023-02-15T13:07:47;30.33;;;21.23;;
18905;SDS011;9585;51.018;4.282;2023-02-15T13:10:24;29.25;;;20.70;;
18905;SDS011;9585;51.018;4.282;2023-02-15T13:12:53;29.63;;;21.38;;
18905;SDS011;9585;51.018;4.282;2023-02-15T13:15:27;28.27;;;20.10;;
18905;SDS011;9585;51.018;4.282;2023-02-15T13:18:00;28.45;;;20.58;;
18905;SDS011;9585;51.018;4.282;2023-02-15T13:20:30;30.58;;;21.25;;
18905;SDS011;9585;51.018;4.282;2023-02-15T13:23:02;30.70;;;21.20;;
18905;SDS011;9585;51.018;4.282;2023-02-15T13:25:34;26.60;;;19.95;;
18905;SDS011;9585;51.018;4.282;2023-02-15T13:28:06;26.70;;;20.50;;
18905;SDS011;9585;51.018;4.282;2023-02-15T13:30:42;30.42;;;21.60;;
18905;SDS011;9585;51.018;4.282;2023-02-15T13:33:14;32.83;;;22.90;;
18905;SDS011;9585;51.018;4.282;2023-02-15T13:35:47;27.58;;;20.30;;
18905;SDS011;9585;51.018;4.282;2023-02-15T13:38:24;31.77;;;22.75;;
18905;SDS011;9585;51.018;4.282;2023-02-15T13:41:17;30.80;;;21.70;;
18905;SDS011;9585;51.018;4.282;2023-02-15T13:43:52;33.58;;;23.48;;
18905;SDS011;9585;51.018;4.282;2023-02-15T13:46:32;31.73;;;22.73;;
18905;SDS011;9585;51.018;4.282;2023-02-15T13:49:15;31.35;;;22.67;;
18905;SDS011;9585;51.018;4.282;2023-02-15T13:51:55;34.45;;;23.33;;
18905;SDS011;9585;51.018;4.282;2023-02-15T13:54:36;32.08;;;22.55;;
18905;SDS011;9585;51.018;4.282;2023-02-15T13:57:19;33.53;;;24.48;;
18905;SDS011;9585;51.018;4.282;2023-02-15T14:00:01;31.67;;;23.65;;
18905;SDS011;9585;51.018;4.282;2023-02-15T14:02:52;32.10;;;23.80;;
18905;SDS011;9585;51.018;4.282;2023-02-15T14:05:51;29.95;;;21.83;;
18905;SDS011;9585;51.018;4.282;2023-02-15T14:08:39;30.98;;;23.15;;
18905;SDS011;9585;51.018;4.282;2023-02-15T14:11:21;32.45;;;21.85;;
18905;SDS011;9585;51.018;4.282;2023-02-15T14:14:02;26.83;;;20.52;;
18905;SDS011;9585;51.018;4.282;2023-02-15T14:16:56;31.40;;;22.08;;
18905;SDS011;9585;51.018;4.282;2023-02-15T14:19:28;30.83;;;21.95;;
18905;SDS011;9585;51.018;4.282;2023-02-15T14:22:05;27.27;;;20.63;;
18905;SDS011;9585;51.018;4.282;2023-02-15T14:24:42;30.30;;;21.63;;
18905;SDS011;9585;51.018;4.282;2023-02-15T14:27:17;28.27;;;20.25;;
18905;SDS011;9585;51.018;4.282;2023-02-15T14:29:52;31.25;;;22.17;;
18905;SDS011;9585;51.018;4.282;2023-02-15T14:32:24;30.90;;;21.70;;
18905;SDS011;9585;51.018;4.282;2023-02-15T14:34:57;34.03;;;21.55;;
18905;SDS011;9585;51.018;4.282;2023-02-15T14:37:31;24.90;;;18.75;;
18905;SDS011;9585;51.018;4.282;2023-02-15T14:40:07;29.58;;;20.23;;
18905;SDS011;9585;51.018;4.282;2023-02-15T14:43:00;29.30;;;21.60;;
18905;SDS011;9585;51.018;4.282;2023-02-15T14:45:33;30.20;;;20.92;;
18905;SDS011;9585;51.018;4.282;2023-02-15T14:48:09;28.08;;;19.90;;
18905;SDS011;9585;51.018;4.282;2023-02-15T14:50:43;25.25;;;19.73;;
18905;SDS011;9585;51.018;4.282;2023-02-15T14:53:17;26.52;;;19.30;;
18905;SDS011;9585;51.018;4.282;2023-02-15T14:56:13;28.60;;;19.95;;
18905;SDS011;9585;51.018;4.282;2023-02-15T14:58:59;29.08;;;20.25;;
18905;SDS011;9585;51.018;4.282;2023-02-15T15:01:40;27.02;;;19.85;;
18905;SDS011;9585;51.018;4.282;2023-02-15T15:04:08;28.60;;;21.10;;
18905;SDS011;9585;51.018;4.282;2023-02-15T15:06:39;29.17;;;22.20;;
18905;SDS011;9585;51.018;4.282;2023-02-15T15:09:13;28.90;;;21.30;;
18905;SDS011;9585;51.018;4.282;2023-02-15T15:11:46;27.95;;;19.95;;
18905;SDS011;9585;51.018;4.282;2023-02-15T15:17:06;30.73;;;20.90;;